Salem Township, Maine
Current Conditions -  °F | °C
As of 7:15 AM on Friday 24 Oct 2014 (Local Time) from KWVL Reporting Station
Overcast Overcast  
Wind Chill: 41°   Ceiling: 1500
Heat Index: 46°   Visibility: 10mi
Dew Point: 41°   Wind: 10mph
Humidity: 81%   Direction: 360°N
Pressure: 29.67"   Gusts: NA
Location:  44.8564°N, 70.2117°W
Report Text: KWVL 241115Z 36009KT 10SM OVC015 08/05 A2967 RMK AO1
Loading
Personal Weather Stations






























Interactive Weather Map New forecast layout! Learn more

10-Day Weather Forecast

Advertisements
Track Severe Weather on mobile